sensor_id;sensor_type;location;lat;lon;timestamp;pressure;altitude;pressure_sealevel;temperature;humidity
64192;BME280;50497;50.720;-2.084;2023-02-28T00:00:34;102810.41;;;4.61;100.00
64192;BME280;50497;50.720;-2.084;2023-02-28T00:03:10;102804.16;;;4.55;100.00
64192;BME280;50497;50.720;-2.084;2023-02-28T00:05:35;102797.97;;;4.53;100.00
64192;BME280;50497;50.720;-2.084;2023-02-28T00:08:07;102808.59;;;4.56;100.00
64192;BME280;50497;50.720;-2.084;2023-02-28T00:10:37;102809.41;;;4.47;100.00
64192;BME280;50497;50.720;-2.084;2023-02-28T00:13:05;102795.25;;;4.48;100.00
64192;BME280;50497;50.720;-2.084;2023-02-28T00:15:39;102789.97;;;4.51;100.00
64192;BME280;50497;50.720;-2.084;2023-02-28T00:18:16;102777.50;;;4.39;100.00
64192;BME280;50497;50.720;-2.084;2023-02-28T00:20:43;102745.50;;;4.22;100.00
64192;BME280;50497;50.720;-2.084;2023-02-28T00:23:12;102739.41;;;4.30;100.00
64192;BME280;50497;50.720;-2.084;2023-02-28T00:25:38;102722.53;;;4.21;100.00
64192;BME280;50497;50.720;-2.084;2023-02-28T00:28:06;102722.50;;;4.18;100.00
64192;BME280;50497;50.720;-2.084;2023-02-28T00:30:38;102716.28;;;4.15;100.00
64192;BME280;50497;50.720;-2.084;2023-02-28T00:33:03;102682.53;;;3.95;100.00
64192;BME280;50497;50.720;-2.084;2023-02-28T00:35:29;102701.22;;;4.09;100.00
64192;BME280;50497;50.720;-2.084;2023-02-28T00:38:01;102691.28;;;3.89;100.00
64192;BME280;50497;50.720;-2.084;2023-02-28T00:40:30;102678.72;;;3.73;100.00
64192;BME280;50497;50.720;-2.084;2023-02-28T00:42:58;102670.56;;;3.55;100.00
64192;BME280;50497;50.720;-2.084;2023-02-28T00:45:24;102635.91;;;3.35;100.00
64192;BME280;50497;50.720;-2.084;2023-02-28T00:47:49;102621.78;;;3.32;100.00
64192;BME280;50497;50.720;-2.084;2023-02-28T00:50:19;102604.84;;;3.20;100.00
64192;BME280;50497;50.720;-2.084;2023-02-28T00:52:51;102586.22;;;3.13;100.00
64192;BME280;50497;50.720;-2.084;2023-02-28T00:55:21;102571.97;;;3.01;100.00
64192;BME280;50497;50.720;-2.084;2023-02-28T00:57:53;102550.66;;;2.88;100.00
64192;BME280;50497;50.720;-2.084;2023-02-28T01:00:22;102544.38;;;2.82;100.00
64192;BME280;50497;50.720;-2.084;2023-02-28T01:02:52;102515.09;;;2.65;100.00
64192;BME280;50497;50.720;-2.084;2023-02-28T01:05:20;102502.78;;;2.67;100.00
64192;BME280;50497;50.720;-2.084;2023-02-28T01:07:49;102501.84;;;2.63;100.00
64192;BME280;50497;50.720;-2.084;2023-02-28T01:10:22;102495.66;;;2.59;100.00
64192;BME280;50497;50.720;-2.084;2023-02-28T01:12:47;102488.53;;;2.57;100.00
64192;BME280;50497;50.720;-2.084;2023-02-28T01:15:20;102463.63;;;2.38;100.00
64192;BME280;50497;50.720;-2.084;2023-02-28T01:17:52;102493.75;;;2.49;100.00
64192;BME280;50497;50.720;-2.084;2023-02-28T01:20:18;102495.41;;;2.43;100.00
64192;BME280;50497;50.720;-2.084;2023-02-28T01:22:43;102473.97;;;2.22;100.00
64192;BME280;50497;50.720;-2.084;2023-02-28T01:25:14;102483.88;;;2.37;100.00
64192;BME280;50497;50.720;-2.084;2023-02-28T01:27:57;102489.94;;;2.30;100.00
64192;BME280;50497;50.720;-2.084;2023-02-28T01:30:33;102497.00;;;2.31;100.00
64192;BME280;50497;50.720;-2.084;2023-02-28T01:33:14;102496.94;;;2.28;100.00
64192;BME280;50497;50.720;-2.084;2023-02-28T01:35:56;102477.47;;;2.21;100.00
64192;BME280;50497;50.720;-2.084;2023-02-28T01:38:26;102483.59;;;2.19;100.00
64192;BME280;50497;50.720;-2.084;2023-02-28T01:40:57;102482.72;;;2.20;100.00
64192;BME280;50497;50.720;-2.084;2023-02-28T01:46:18;102471.94;;;2.05;100.00
64192;BME280;50497;50.720;-2.084;2023-02-28T01:48:54;102465.72;;;2.02;100.00
64192;BME280;50497;50.720;-2.084;2023-02-28T01:54:11;102472.75;;;2.00;100.00
64192;BME280;50497;50.720;-2.084;2023-02-28T01:56:57;102468.41;;;2.04;100.00
64192;BME280;50497;50.720;-2.084;2023-02-28T01:59:28;102452.44;;;1.95;100.00
64192;BME280;50497;50.720;-2.084;2023-02-28T02:01:59;102454.16;;;1.93;100.00
64192;BME280;50497;50.720;-2.084;2023-02-28T02:04:40;102427.44;;;1.74;100.00
64192;BME280;50497;50.720;-2.084;2023-02-28T02:07:19;102444.47;;;1.93;100.00
64192;BME280;50497;50.720;-2.084;2023-02-28T02:10:03;102450.63;;;1.92;100.00
64192;BME280;50497;50.720;-2.084;2023-02-28T02:15:46;102430.16;;;1.79;100.00
64192;BME280;50497;50.720;-2.084;2023-02-28T02:18:23;102449.66;;;1.87;100.00
64192;BME280;50497;50.720;-2.084;2023-02-28T02:26:33;102438.91;;;1.75;100.00
64192;BME280;50497;50.720;-2.084;2023-02-28T02:37:47;102432.41;;;1.56;100.00
64192;BME280;50497;50.720;-2.084;2023-02-28T02:40:23;102418.31;;;1.54;100.00
64192;BME280;50497;50.720;-2.084;2023-02-28T02:48:19;102408.66;;;1.54;100.00
64192;BME280;50497;50.720;-2.084;2023-02-28T02:50:53;102395.19;;;1.37;100.00
64192;BME280;50497;50.720;-2.084;2023-02-28T02:53:46;102411.06;;;1.40;100.00
64192;BME280;50497;50.720;-2.084;2023-02-28T02:56:10;102389.81;;;1.29;100.00
64192;BME280;50497;50.720;-2.084;2023-02-28T02:58:40;102398.69;;;1.38;100.00
64192;BME280;50497;50.720;-2.084;2023-02-28T03:01:17;102390.78;;;1.38;100.00
64192;BME280;50497;50.720;-2.084;2023-02-28T03:04:02;102380.25;;;1.38;100.00
64192;BME280;50497;50.720;-2.084;2023-02-28T03:06:29;102362.53;;;1.31;100.00
64192;BME280;50497;50.720;-2.084;2023-02-28T03:08:59;102375.69;;;1.27;100.00
64192;BME280;50497;50.720;-2.084;2023-02-28T03:11:29;102369.56;;;1.28;100.00
64192;BME280;50497;50.720;-2.084;2023-02-28T03:14:32;102368.63;;;1.25;100.00
64192;BME280;50497;50.720;-2.084;2023-02-28T03:17:26;102355.31;;;1.19;100.00
64192;BME280;50497;50.720;-2.084;2023-02-28T03:26:02;102325.50;;;1.21;100.00
64192;BME280;50497;50.720;-2.084;2023-02-28T03:28:41;102312.31;;;1.21;100.00
64192;BME280;50497;50.720;-2.084;2023-02-28T03:31:27;102300.78;;;1.16;100.00
64192;BME280;50497;50.720;-2.084;2023-02-28T03:34:16;102294.81;;;1.26;100.00
64192;BME280;50497;50.720;-2.084;2023-02-28T03:36:48;102285.00;;;1.19;100.00
64192;BME280;50497;50.720;-2.084;2023-02-28T03:39:26;102283.25;;;1.18;100.00
64192;BME280;50497;50.720;-2.084;2023-02-28T03:42:15;102268.34;;;1.20;100.00
64192;BME280;50497;50.720;-2.084;2023-02-28T03:44:51;102261.25;;;1.18;100.00
64192;BME280;50497;50.720;-2.084;2023-02-28T03:47:26;102245.41;;;1.13;100.00
64192;BME280;50497;50.720;-2.084;2023-02-28T03:50:04;102249.91;;;1.22;100.00
64192;BME280;50497;50.720;-2.084;2023-02-28T03:52:42;102251.56;;;1.15;100.00
64192;BME280;50497;50.720;-2.084;2023-02-28T03:55:13;102244.38;;;1.05;100.00
64192;BME280;50497;50.720;-2.084;2023-02-28T04:01:03;102205.56;;;0.96;100.00
64192;BME280;50497;50.720;-2.084;2023-02-28T04:03:35;102199.53;;;1.02;100.00
64192;BME280;50497;50.720;-2.084;2023-02-28T04:06:08;102181.03;;;0.99;100.00
64192;BME280;50497;50.720;-2.084;2023-02-28T04:08:45;102167.69;;;0.86;100.00
64192;BME280;50497;50.720;-2.084;2023-02-28T04:13:46;102155.34;;;0.85;100.00
64192;BME280;50497;50.720;-2.084;2023-02-28T04:16:15;102154.56;;;0.92;100.00
64192;BME280;50497;50.720;-2.084;2023-02-28T04:18:42;102150.22;;;0.96;100.00
64192;BME280;50497;50.720;-2.084;2023-02-28T04:21:13;102133.50;;;0.92;100.00
64192;BME280;50497;50.720;-2.084;2023-02-28T04:23:45;102117.75;;;0.97;100.00
64192;BME280;50497;50.720;-2.084;2023-02-28T04:26:11;102111.53;;;0.92;100.00
64192;BME280;50497;50.720;-2.084;2023-02-28T04:28:44;102103.66;;;0.94;100.00
64192;BME280;50497;50.720;-2.084;2023-02-28T04:31:10;102106.19;;;0.87;100.00
64192;BME280;50497;50.720;-2.084;2023-02-28T04:33:45;102083.34;;;0.85;100.00
64192;BME280;50497;50.720;-2.084;2023-02-28T04:36:16;102081.50;;;0.81;100.00
64192;BME280;50497;50.720;-2.084;2023-02-28T04:38:46;102064.84;;;0.82;100.00
64192;BME280;50497;50.720;-2.084;2023-02-28T04:41:16;102061.28;;;0.81;100.00
64192;BME280;50497;50.720;-2.084;2023-02-28T04:43:45;102059.44;;;0.74;100.00
64192;BME280;50497;50.720;-2.084;2023-02-28T04:46:13;102033.84;;;0.64;100.00
64192;BME280;50497;50.720;-2.084;2023-02-28T04:48:53;102040.22;;;0.78;100.00
64192;BME280;50497;50.720;-2.084;2023-02-28T04:51:31;102028.75;;;0.78;100.00
64192;BME280;50497;50.720;-2.084;2023-02-28T04:53:56;102016.47;;;0.80;100.00
64192;BME280;50497;50.720;-2.084;2023-02-28T04:56:30;101975.31;;;0.85;100.00
64192;BME280;50497;50.720;-2.084;2023-02-28T04:59:06;101960.41;;;0.88;100.00
64192;BME280;50497;50.720;-2.084;2023-02-28T05:01:38;101958.63;;;0.87;100.00
64192;BME280;50497;50.720;-2.084;2023-02-28T05:04:08;101939.41;;;0.96;100.00
64192;BME280;50497;50.720;-2.084;2023-02-28T05:06:39;101934.97;;;0.90;100.00
64192;BME280;50497;50.720;-2.084;2023-02-28T05:09:11;101925.38;;;0.97;100.00
64192;BME280;50497;50.720;-2.084;2023-02-28T05:11:40;101917.56;;;1.05;100.00
64192;BME280;50497;50.720;-2.084;2023-02-28T05:14:14;101907.06;;;1.13;100.00
64192;BME280;50497;50.720;-2.084;2023-02-28T05:16:42;101907.91;;;1.07;100.00
64192;BME280;50497;50.720;-2.084;2023-02-28T05:19:15;101902.59;;;1.04;100.00
64192;BME280;50497;50.720;-2.084;2023-02-28T05:21:56;101904.34;;;1.02;100.00
64192;BME280;50497;50.720;-2.084;2023-02-28T05:24:25;101899.09;;;1.03;100.00
64192;BME280;50497;50.720;-2.084;2023-02-28T05:26:59;101877.00;;;0.90;100.00
64192;BME280;50497;50.720;-2.084;2023-02-28T05:29:29;101875.22;;;0.89;100.00
64192;BME280;50497;50.720;-2.084;2023-02-28T05:32:04;101874.41;;;0.95;100.00
64192;BME280;50497;50.720;-2.084;2023-02-28T05:34:34;101854.16;;;0.92;100.00
64192;BME280;50497;50.720;-2.084;2023-02-28T05:37:03;101855.06;;;0.96;100.00
64192;BME280;50497;50.720;-2.084;2023-02-28T05:39:31;101851.63;;;1.00;100.00
64192;BME280;50497;50.720;-2.084;2023-02-28T05:41:57;101847.16;;;0.96;100.00
64192;BME280;50497;50.720;-2.084;2023-02-28T05:44:25;101833.06;;;0.89;100.00
64192;BME280;50497;50.720;-2.084;2023-02-28T05:46:53;101840.09;;;0.89;100.00
64192;BME280;50497;50.720;-2.084;2023-02-28T05:49:19;101831.31;;;0.88;100.00
64192;BME280;50497;50.720;-2.084;2023-02-28T05:51:44;101804.94;;;0.85;100.00
64192;BME280;50497;50.720;-2.084;2023-02-28T05:54:09;101808.44;;;0.86;100.00
64192;BME280;50497;50.720;-2.084;2023-02-28T05:56:35;101788.06;;;0.65;100.00
64192;BME280;50497;50.720;-2.084;2023-02-28T05:59:02;101796.91;;;0.74;100.00
64192;BME280;50497;50.720;-2.084;2023-02-28T06:01:40;101796.88;;;0.73;100.00
64192;BME280;50497;50.720;-2.084;2023-02-28T06:04:08;101776.59;;;0.63;100.00
64192;BME280;50497;50.720;-2.084;2023-02-28T06:06:35;101780.16;;;0.68;100.00
64192;BME280;50497;50.720;-2.084;2023-02-28T06:09:02;101761.50;;;0.43;100.00
64192;BME280;50497;50.720;-2.084;2023-02-28T06:11:28;101772.94;;;0.48;100.00
64192;BME280;50497;50.720;-2.084;2023-02-28T06:13:57;101770.28;;;0.45;100.00
64192;BME280;50497;50.720;-2.084;2023-02-28T06:16:26;101765.94;;;0.50;100.00
64192;BME280;50497;50.720;-2.084;2023-02-28T06:18:52;101731.63;;;0.44;100.00
64192;BME280;50497;50.720;-2.084;2023-02-28T06:21:19;101753.63;;;0.49;100.00
64192;BME280;50497;50.720;-2.084;2023-02-28T06:23:44;101756.28;;;0.51;100.00
64192;BME280;50497;50.720;-2.084;2023-02-28T06:26:17;101744.94;;;0.55;100.00
64192;BME280;50497;50.720;-2.084;2023-02-28T06:28:43;101741.41;;;0.56;100.00
64192;BME280;50497;50.720;-2.084;2023-02-28T06:31:16;101731.78;;;0.60;100.00
64192;BME280;50497;50.720;-2.084;2023-02-28T06:33:44;101728.31;;;0.62;100.00
64192;BME280;50497;50.720;-2.084;2023-02-28T06:36:17;101719.56;;;0.68;100.00
64192;BME280;50497;50.720;-2.084;2023-02-28T06:38:44;101713.34;;;0.57;100.00
64192;BME280;50497;50.720;-2.084;2023-02-28T06:41:17;101707.13;;;0.48;100.00
64192;BME280;50497;50.720;-2.084;2023-02-28T06:43:50;101713.25;;;0.47;100.00
64192;BME280;50497;50.720;-2.084;2023-02-28T06:46:22;101703.56;;;0.46;100.00
64192;BME280;50497;50.720;-2.084;2023-02-28T06:48:59;101678.09;;;0.42;100.00
64192;BME280;50497;50.720;-2.084;2023-02-28T06:51:34;101695.72;;;0.51;100.00
64192;BME280;50497;50.720;-2.084;2023-02-28T06:54:00;101686.06;;;0.48;100.00
64192;BME280;50497;50.720;-2.084;2023-02-28T06:56:34;101689.56;;;0.49;100.00
64192;BME280;50497;50.720;-2.084;2023-02-28T06:58:59;101685.13;;;0.46;100.00
64192;BME280;50497;50.720;-2.084;2023-02-28T07:01:29;101686.91;;;0.47;100.00
64192;BME280;50497;50.720;-2.084;2023-02-28T07:03:58;101679.91;;;0.49;100.00
64192;BME280;50497;50.720;-2.084;2023-02-28T07:06:35;101687.88;;;0.57;100.00
64192;BME280;50497;50.720;-2.084;2023-02-28T07:09:04;101690.50;;;0.54;100.00
64192;BME280;50497;50.720;-2.084;2023-02-28T07:11:30;101665.88;;;0.50;100.00
64192;BME280;50497;50.720;-2.084;2023-02-28T07:14:00;101688.84;;;0.67;100.00
64192;BME280;50497;50.720;-2.084;2023-02-28T07:16:26;101695.84;;;0.63;100.00
64192;BME280;50497;50.720;-2.084;2023-02-28T07:18:55;101689.69;;;0.63;100.00
64192;BME280;50497;50.720;-2.084;2023-02-28T07:21:26;101691.47;;;0.65;100.00
64192;BME280;50497;50.720;-2.084;2023-02-28T07:24:08;101688.88;;;0.68;100.00
64192;BME280;50497;50.720;-2.084;2023-02-28T07:26:48;101695.09;;;0.78;100.00
64192;BME280;50497;50.720;-2.084;2023-02-28T07:29:24;101688.09;;;0.80;100.00
64192;BME280;50497;50.720;-2.084;2023-02-28T07:31:52;101693.34;;;0.80;100.00
64192;BME280;50497;50.720;-2.084;2023-02-28T07:34:25;101669.56;;;0.72;100.00
64192;BME280;50497;50.720;-2.084;2023-02-28T07:36:58;101687.28;;;0.90;100.00
64192;BME280;50497;50.720;-2.084;2023-02-28T07:39:29;101681.19;;;0.98;100.00
64192;BME280;50497;50.720;-2.084;2023-02-28T07:41:57;101685.63;;;1.05;100.00
64192;BME280;50497;50.720;-2.084;2023-02-28T07:44:28;101663.63;;;0.98;100.00
64192;BME280;50497;50.720;-2.084;2023-02-28T07:46:58;101647.81;;;0.98;100.00
64192;BME280;50497;50.720;-2.084;2023-02-28T07:49:28;101673.41;;;1.19;100.00
64192;BME280;50497;50.720;-2.084;2023-02-28T07:51:53;101673.44;;;1.22;100.00
64192;BME280;50497;50.720;-2.084;2023-02-28T07:54:20;101668.19;;;1.25;100.00
64192;BME280;50497;50.720;-2.084;2023-02-28T07:56:58;101677.00;;;1.31;100.00
64192;BME280;50497;50.720;-2.084;2023-02-28T07:59:27;101674.41;;;1.37;100.00
64192;BME280;50497;50.720;-2.084;2023-02-28T08:01:52;101670.94;;;1.45;100.00
64192;BME280;50497;50.720;-2.084;2023-02-28T08:04:22;101670.97;;;1.52;100.00
64192;BME280;50497;50.720;-2.084;2023-02-28T08:06:48;101678.03;;;1.57;100.00
64192;BME280;50497;50.720;-2.084;2023-02-28T08:09:17;101675.47;;;1.70;100.00
64192;BME280;50497;50.720;-2.084;2023-02-28T08:11:49;101653.44;;;1.66;100.00
64192;BME280;50497;50.720;-2.084;2023-02-28T08:14:19;101674.63;;;1.89;100.00
64192;BME280;50497;50.720;-2.084;2023-02-28T08:16:52;101692.25;;;1.92;100.00
64192;BME280;50497;50.720;-2.084;2023-02-28T08:19:17;101675.53;;;1.88;100.00
64192;BME280;50497;50.720;-2.084;2023-02-28T08:21:43;101690.50;;;1.98;100.00
64192;BME280;50497;50.720;-2.084;2023-02-28T08:24:09;101692.25;;;2.02;100.00
64192;BME280;50497;50.720;-2.084;2023-02-28T08:26:34;101712.56;;;2.16;100.00
64192;BME280;50497;50.720;-2.084;2023-02-28T08:29:03;101701.09;;;2.08;100.00
64192;BME280;50497;50.720;-2.084;2023-02-28T08:31:32;101733.72;;;2.30;100.00
64192;BME280;50497;50.720;-2.084;2023-02-28T08:34:11;101735.50;;;2.37;100.00
64192;BME280;50497;50.720;-2.084;2023-02-28T08:36:41;101753.13;;;2.46;100.00
64192;BME280;50497;50.720;-2.084;2023-02-28T08:39:14;101766.34;;;2.53;100.00
64192;BME280;50497;50.720;-2.084;2023-02-28T08:41:55;101783.13;;;2.66;100.00
64192;BME280;50497;50.720;-2.084;2023-02-28T08:44:23;101798.13;;;2.83;100.00
64192;BME280;50497;50.720;-2.084;2023-02-28T08:46:53;101818.44;;;3.13;100.00
64192;BME280;50497;50.720;-2.084;2023-02-28T08:49:22;101829.00;;;3.30;100.00
64192;BME280;50497;50.720;-2.084;2023-02-28T08:51:52;101861.63;;;3.57;100.00
64192;BME280;50497;50.720;-2.084;2023-02-28T08:54:24;101901.34;;;3.67;100.00
64192;BME280;50497;50.720;-2.084;2023-02-28T08:57:05;101938.41;;;3.69;100.00
64192;BME280;50497;50.720;-2.084;2023-02-28T08:59:42;101992.25;;;4.03;100.00
64192;BME280;50497;50.720;-2.084;2023-02-28T09:02:12;102016.00;;;4.68;100.00
64192;BME280;50497;50.720;-2.084;2023-02-28T09:04:37;102090.09;;;5.22;100.00
64192;BME280;50497;50.720;-2.084;2023-02-28T09:07:03;102169.47;;;5.87;100.00
64192;BME280;50497;50.720;-2.084;2023-02-28T09:09:33;102289.78;;;6.21;100.00
64192;BME280;50497;50.720;-2.084;2023-02-28T09:11:58;102422.56;;;6.63;100.00
64192;BME280;50497;50.720;-2.084;2023-02-28T09:14:31;102606.84;;;7.19;100.00
64192;BME280;50497;50.720;-2.084;2023-02-28T09:17:03;102708.69;;;7.80;100.00
64192;BME280;50497;50.720;-2.084;2023-02-28T09:19:39;102825.81;;;8.18;100.00
64192;BME280;50497;50.720;-2.084;2023-02-28T09:22:08;102897.75;;;8.40;100.00
64192;BME280;50497;50.720;-2.084;2023-02-28T09:24:38;102944.94;;;8.11;100.00
64192;BME280;50497;50.720;-2.084;2023-02-28T09:27:07;102968.09;;;7.92;100.00
64192;BME280;50497;50.720;-2.084;2023-02-28T09:29:35;102979.53;;;8.72;100.00
64192;BME280;50497;50.720;-2.084;2023-02-28T09:32:07;103018.69;;;8.59;100.00
64192;BME280;50497;50.720;-2.084;2023-02-28T09:34:33;103041.72;;;8.81;100.00
64192;BME280;50497;50.720;-2.084;2023-02-28T09:37:06;103020.50;;;7.96;100.00
64192;BME280;50497;50.720;-2.084;2023-02-28T09:39:37;103041.78;;;8.69;100.00
64192;BME280;50497;50.720;-2.084;2023-02-28T09:42:05;103047.63;;;9.54;100.00
64192;BME280;50497;50.720;-2.084;2023-02-28T09:44:42;103070.81;;;9.54;100.00
64192;BME280;50497;50.720;-2.084;2023-02-28T09:47:26;103095.09;;;8.98;100.00
64192;BME280;50497;50.720;-2.084;2023-02-28T09:49:57;103098.13;;;10.02;100.00
64192;BME280;50497;50.720;-2.084;2023-02-28T09:52:29;103119.75;;;9.65;100.00
64192;BME280;50497;50.720;-2.084;2023-02-28T09:55:01;103128.50;;;9.92;100.00
64192;BME280;50497;50.720;-2.084;2023-02-28T09:57:37;103130.16;;;10.11;100.00
64192;BME280;50497;50.720;-2.084;2023-02-28T10:00:20;103127.34;;;10.28;100.00
64192;BME280;50497;50.720;-2.084;2023-02-28T10:05:38;103155.66;;;10.62;100.00
64192;BME280;50497;50.720;-2.084;2023-02-28T10:08:14;103154.22;;;10.14;100.00
64192;BME280;50497;50.720;-2.084;2023-02-28T10:10:48;103158.88;;;10.98;100.00
64192;BME280;50497;50.720;-2.084;2023-02-28T10:16:08;103128.53;;;9.87;100.00
64192;BME280;50497;50.720;-2.084;2023-02-28T10:18:50;103140.78;;;10.17;100.00
64192;BME280;50497;50.720;-2.084;2023-02-28T10:21:59;103138.81;;;10.49;100.00
64192;BME280;50497;50.720;-2.084;2023-02-28T10:24:38;103151.31;;;10.48;100.00
64192;BME280;50497;50.720;-2.084;2023-02-28T10:29:45;103142.53;;;10.26;100.00
64192;BME280;50497;50.720;-2.084;2023-02-28T10:32:19;103134.22;;;10.62;100.00
64192;BME280;50497;50.720;-2.084;2023-02-28T10:34:57;103149.03;;;11.00;100.00
64192;BME280;50497;50.720;-2.084;2023-02-28T10:37:28;103146.91;;;11.30;100.00
64192;BME280;50497;50.720;-2.084;2023-02-28T10:39:57;103162.66;;;10.78;100.00
64192;BME280;50497;50.720;-2.084;2023-02-28T10:42:27;103158.72;;;10.06;100.00
64192;BME280;50497;50.720;-2.084;2023-02-28T10:45:15;103143.09;;;10.68;100.00
64192;BME280;50497;50.720;-2.084;2023-02-28T11:01:43;103182.25;;;9.30;100.00
64192;BME280;50497;50.720;-2.084;2023-02-28T11:07:00;103161.88;;;10.64;100.00
64192;BME280;50497;50.720;-2.084;2023-02-28T11:12:02;103165.28;;;10.84;100.00
64192;BME280;50497;50.720;-2.084;2023-02-28T11:15:03;103164.03;;;11.16;100.00
64192;BME280;50497;50.720;-2.084;2023-02-28T11:17:33;103176.44;;;11.99;100.00
64192;BME280;50497;50.720;-2.084;2023-02-28T11:20:06;103181.81;;;11.98;100.00
64192;BME280;50497;50.720;-2.084;2023-02-28T11:22:37;103181.81;;;11.23;100.00
64192;BME280;50497;50.720;-2.084;2023-02-28T11:25:20;103153.84;;;10.64;100.00
64192;BME280;50497;50.720;-2.084;2023-02-28T11:27:49;103162.63;;;10.81;100.00
64192;BME280;50497;50.720;-2.084;2023-02-28T11:32:55;103148.78;;;11.24;100.00
64192;BME280;50497;50.720;-2.084;2023-02-28T11:37:58;103141.34;;;11.48;100.00
64192;BME280;50497;50.720;-2.084;2023-02-28T11:40:28;103153.41;;;11.80;100.00
64192;BME280;50497;50.720;-2.084;2023-02-28T11:46:12;103154.69;;;11.53;100.00
64192;BME280;50497;50.720;-2.084;2023-02-28T11:51:20;103149.75;;;11.17;100.00
64192;BME280;50497;50.720;-2.084;2023-02-28T12:15:47;103030.72;;;10.61;100.00
64192;BME280;50497;50.720;-2.084;2023-02-28T12:26:19;103068.09;;;9.60;100.00
64192;BME280;50497;50.720;-2.084;2023-02-28T12:28:58;103056.81;;;8.98;100.00
64192;BME280;50497;50.720;-2.084;2023-02-28T12:31:30;103018.66;;;8.66;100.00
64192;BME280;50497;50.720;-2.084;2023-02-28T12:34:15;102987.03;;;9.59;100.00
64192;BME280;50497;50.720;-2.084;2023-02-28T12:36:45;102992.59;;;9.27;100.00
64192;BME280;50497;50.720;-2.084;2023-02-28T12:39:18;102987.47;;;8.75;100.00
64192;BME280;50497;50.720;-2.084;2023-02-28T12:41:53;102958.19;;;8.58;100.00
64192;BME280;50497;50.720;-2.084;2023-02-28T12:46:55;102936.91;;;8.31;100.00
64192;BME280;50497;50.720;-2.084;2023-02-28T12:49:38;102935.81;;;8.93;100.00
64192;BME280;50497;50.720;-2.084;2023-02-28T12:52:15;102924.94;;;9.27;100.00
64192;BME280;50497;50.720;-2.084;2023-02-28T12:55:00;102940.16;;;9.11;100.00
64192;BME280;50497;50.720;-2.084;2023-02-28T12:58:05;102916.94;;;9.25;100.00
64192;BME280;50497;50.720;-2.084;2023-02-28T13:00:35;102936.63;;;9.02;100.00
64192;BME280;50497;50.720;-2.084;2023-02-28T13:09:12;102879.84;;;8.73;100.00
64192;BME280;50497;50.720;-2.084;2023-02-28T13:11:46;102902.94;;;8.83;100.00
64192;BME280;50497;50.720;-2.084;2023-02-28T13:14:35;102905.47;;;9.04;100.00
64192;BME280;50497;50.720;-2.084;2023-02-28T13:17:13;102899.34;;;8.92;100.00
64192;BME280;50497;50.720;-2.084;2023-02-28T13:24:56;102892.47;;;8.30;100.00
64192;BME280;50497;50.720;-2.084;2023-02-28T13:27:39;102862.34;;;8.01;100.00
64192;BME280;50497;50.720;-2.084;2023-02-28T13:35:59;102840.00;;;8.32;100.00
64192;BME280;50497;50.720;-2.084;2023-02-28T13:38:37;102804.50;;;8.17;100.00
64192;BME280;50497;50.720;-2.084;2023-02-28T13:49:31;102783.97;;;8.43;100.00
64192;BME280;50497;50.720;-2.084;2023-02-28T13:52:12;102775.03;;;8.40;100.00
64192;BME280;50497;50.720;-2.084;2023-02-28T14:06:58;102705.53;;;8.67;100.00
64192;BME280;50497;50.720;-2.084;2023-02-28T14:15:02;102733.88;;;10.42;100.00
64192;BME280;50497;50.720;-2.084;2023-02-28T14:17:37;102776.16;;;10.14;100.00
64192;BME280;50497;50.720;-2.084;2023-02-28T14:20:13;102772.34;;;10.96;100.00
64192;BME280;50497;50.720;-2.084;2023-02-28T14:22:55;102782.63;;;11.19;100.00
64192;BME280;50497;50.720;-2.084;2023-02-28T14:26:14;102805.50;;;10.85;100.00
64192;BME280;50497;50.720;-2.084;2023-02-28T14:28:53;102812.47;;;11.98;100.00
64192;BME280;50497;50.720;-2.084;2023-02-28T14:31:31;102838.06;;;11.67;100.00
64192;BME280;50497;50.720;-2.084;2023-02-28T14:36:40;102832.88;;;11.06;100.00
64192;BME280;50497;50.720;-2.084;2023-02-28T14:39:19;102841.41;;;10.72;100.00
64192;BME280;50497;50.720;-2.084;2023-02-28T14:41:49;102837.34;;;11.58;100.00
64192;BME280;50497;50.720;-2.084;2023-02-28T14:44:22;102851.59;;;11.07;100.00
64192;BME280;50497;50.720;-2.084;2023-02-28T14:46:59;102885.75;;;10.91;100.00
64192;BME280;50497;50.720;-2.084;2023-02-28T14:49:34;102876.06;;;10.84;100.00
64192;BME280;50497;50.720;-2.084;2023-02-28T14:52:23;102854.34;;;11.03;100.00
64192;BME280;50497;50.720;-2.084;2023-02-28T14:55:23;102866.69;;;11.13;100.00
64192;BME280;50497;50.720;-2.084;2023-02-28T14:58:00;102852.13;;;9.96;100.00
64192;BME280;50497;50.720;-2.084;2023-02-28T15:00:35;102810.47;;;9.76;100.00
64192;BME280;50497;50.720;-2.084;2023-02-28T15:03:18;102819.56;;;9.58;100.00
64192;BME280;50497;50.720;-2.084;2023-02-28T15:05:53;102803.72;;;9.41;100.00
64192;BME280;50497;50.720;-2.084;2023-02-28T15:08:26;102790.56;;;9.15;100.00
64192;BME280;50497;50.720;-2.084;2023-02-28T15:13:24;102804.78;;;9.17;100.00
64192;BME280;50497;50.720;-2.084;2023-02-28T15:16:03;102785.91;;;9.39;100.00
64192;BME280;50497;50.720;-2.084;2023-02-28T15:20:58;102768.34;;;9.15;100.00
64192;BME280;50497;50.720;-2.084;2023-02-28T15:23:28;102773.75;;;9.02;100.00
64192;BME280;50497;50.720;-2.084;2023-02-28T15:25:58;102765.78;;;8.96;100.00
64192;BME280;50497;50.720;-2.084;2023-02-28T15:28:28;102754.88;;;9.22;100.00
64192;BME280;50497;50.720;-2.084;2023-02-28T15:31:27;102768.91;;;9.44;100.00
64192;BME280;50497;50.720;-2.084;2023-02-28T15:33:58;102770.72;;;9.42;100.00
64192;BME280;50497;50.720;-2.084;2023-02-28T15:36:37;102766.31;;;9.40;100.00
64192;BME280;50497;50.720;-2.084;2023-02-28T15:39:20;102745.16;;;9.20;100.00
64192;BME280;50497;50.720;-2.084;2023-02-28T15:42:11;102749.53;;;9.24;100.00
64192;BME280;50497;50.720;-2.084;2023-02-28T15:44:40;102737.00;;;9.31;100.00
64192;BME280;50497;50.720;-2.084;2023-02-28T15:47:23;102755.94;;;9.03;100.00
64192;BME280;50497;50.720;-2.084;2023-02-28T15:50:00;102734.69;;;8.95;100.00